Time;durP1;ratioP1;P1;durP2;ratioP2;P2;SDS_P1;SDS_P2;PMS_P1;PMS_P2;Temp;Humidity;BMP_temperature;BMP_pressure;BME280_temperature;BME280_humidity;BME280_pressure;Samples;Min_cycle;Max_cycle;Signal;HPM_P1;HPM_P2
2023/09/21 00:00:32;;;;;;;3.63;2.10;;;;;;;17.56;100.00;99798.94;5069808;28;20105;-73
2023/09/21 00:02:58;;;;;;;3.58;2.28;;;;;;;17.53;100.00;99792.97;5053538;28;20051;-73
2023/09/21 00:05:28;;;;;;;3.50;2.17;;;;;;;17.51;100.00;99792.47;5071709;28;20048;-73
2023/09/21 00:07:54;;;;;;;3.40;2.00;;;;;;;17.59;100.00;99784.66;5072489;28;20033;-74
2023/09/21 00:10:19;;;;;;;4.80;2.40;;;;;;;17.53;100.00;99792.97;5052431;28;20078;-73
2023/09/21 00:12:46;;;;;;;5.53;1.85;;;;;;;17.56;100.00;99788.84;5071188;28;20090;-73
2023/09/21 00:15:16;;;;;;;3.97;2.00;;;;;;;17.49;100.00;99786.44;5054184;28;20115;-73
2023/09/21 00:17:44;;;;;;;4.28;2.20;;;;;;;17.55;100.00;99781.72;5072038;28;20037;-74
2023/09/21 00:20:23;;;;;;;3.45;2.00;;;;;;;17.53;100.00;99783.97;5072167;28;20477;-73
2023/09/21 00:22:49;;;;;;;6.88;2.13;;;;;;;17.55;100.00;99776.25;5071267;28;20044;-73
2023/09/21 00:25:15;;;;;;;3.47;2.38;;;;;;;17.53;100.00;99773.81;5068525;28;20379;-73
2023/09/21 00:27:41;;;;;;;3.00;1.90;;;;;;;17.47;100.00;99761.34;5067124;28;20103;-73
2023/09/21 00:30:07;;;;;;;5.15;2.13;;;;;;;17.52;100.00;99765.91;5062955;28;20112;-73
2023/09/21 00:32:38;;;;;;;4.78;2.00;;;;;;;17.51;100.00;99762.38;5065885;28;20130;-73
2023/09/21 00:35:07;;;;;;;3.08;2.00;;;;;;;17.51;100.00;99758.81;5054099;28;20029;-73
2023/09/21 00:37:36;;;;;;;3.58;1.65;;;;;;;17.48;100.00;99752.03;5053975;28;20373;-73
2023/09/21 00:40:05;;;;;;;3.35;2.00;;;;;;;17.52;100.00;99749.50;5070877;28;20029;-72
2023/09/21 00:42:31;;;;;;;5.63;2.30;;;;;;;17.48;100.00;99741.09;5070898;28;20068;-73
2023/09/21 00:44:56;;;;;;;3.67;2.05;;;;;;;17.50;100.00;99735.31;5071986;28;20047;-73
2023/09/21 00:47:21;;;;;;;3.58;2.00;;;;;;;17.49;100.00;99731.75;5072202;28;20437;-73
2023/09/21 00:49:47;;;;;;;4.22;2.08;;;;;;;17.54;100.00;99731.69;5071467;28;20508;-72
2023/09/21 00:52:13;;;;;;;5.55;2.00;;;;;;;17.50;100.00;99736.13;5059755;28;20104;-72
2023/09/21 00:54:41;;;;;;;5.60;2.20;;;;;;;17.52;100.00;99727.63;5036477;28;20044;-73
2023/09/21 00:57:08;;;;;;;2.45;1.75;;;;;;;17.56;100.00;99722.34;5057071;28;20491;-72
2023/09/21 00:59:37;;;;;;;3.50;2.15;;;;;;;17.56;100.00;99722.34;5051406;28;20031;-73
2023/09/21 01:02:04;;;;;;;2.25;1.77;;;;;;;17.59;100.00;99716.28;5052025;28;20033;-73
2023/09/21 01:04:29;;;;;;;2.72;2.00;;;;;;;17.54;100.00;99709.81;5059953;28;20040;-73
2023/09/21 01:06:55;;;;;;;5.70;1.95;;;;;;;17.63;100.00;99706.38;5073591;28;20044;-72
2023/09/21 01:09:21;;;;;;;3.65;1.88;;;;;;;17.62;100.00;99708.31;5075248;28;20078;-72
2023/09/21 01:11:46;;;;;;;2.08;1.60;;;;;;;17.64;100.00;99700.59;5075001;28;20036;-72
2023/09/21 01:14:12;;;;;;;4.43;1.70;;;;;;;17.74;100.00;99707.81;5074011;28;20032;-72
2023/09/21 01:16:37;;;;;;;3.55;1.92;;;;;;;17.76;100.00;99694.66;5074274;28;20606;-72
2023/09/21 01:19:03;;;;;;;4.32;1.90;;;;;;;17.82;100.00;99698.09;5073929;28;20047;-73
2023/09/21 01:21:38;;;;;;;3.03;1.80;;;;;;;17.77;100.00;99696.28;5074818;28;20041;-73
2023/09/21 01:24:04;;;;;;;3.20;1.80;;;;;;;17.80;100.00;99682.00;5056156;28;20032;-72
2023/09/21 01:26:30;;;;;;;2.33;2.00;;;;;;;17.83;100.00;99694.25;5074745;28;20036;-73
2023/09/21 01:28:56;;;;;;;4.30;1.98;;;;;;;17.93;100.00;99687.81;5074896;28;20033;-72
2023/09/21 01:31:22;;;;;;;2.53;1.80;;;;;;;17.94;100.00;99682.03;5074626;28;20368;-73
2023/09/21 01:33:48;;;;;;;3.83;1.80;;;;;;;17.98;100.00;99671.28;5071721;28;20040;-72
2023/09/21 01:36:14;;;;;;;4.25;2.00;;;;;;;17.99;100.00;99672.91;5067887;28;20079;-72
2023/09/21 01:38:46;;;;;;;2.47;1.67;;;;;;;18.02;100.00;99675.03;5054499;28;20025;-73
2023/09/21 01:41:17;;;;;;;2.53;1.70;;;;;;;17.99;100.00;99668.25;5054640;28;20025;-72
2023/09/21 01:43:42;;;;;;;4.45;1.80;;;;;;;18.01;100.00;99666.03;5054492;28;20605;-73
2023/09/21 01:46:09;;;;;;;3.80;2.10;;;;;;;18.01;100.00;99659.72;5054758;28;20111;-72
2023/09/21 01:48:34;;;;;;;2.78;1.58;;;;;;;18.09;100.00;99663.69;5054348;28;20033;-72
2023/09/21 01:50:59;;;;;;;4.80;1.83;;;;;;;18.05;100.00;99656.06;5054188;28;20025;-73
2023/09/21 01:53:25;;;;;;;6.68;1.73;;;;;;;18.05;100.00;99658.00;5054373;28;20021;-72
2023/09/21 01:55:51;;;;;;;3.58;2.10;;;;;;;18.06;100.00;99660.44;5052058;28;20490;-72
2023/09/21 01:58:19;;;;;;;4.30;2.00;;;;;;;18.06;100.00;99652.22;5072249;28;20472;-72
2023/09/21 02:00:46;;;;;;;2.55;1.77;;;;;;;18.04;100.00;99656.38;5052381;28;20025;-72
2023/09/21 02:03:13;;;;;;;2.72;1.73;;;;;;;18.08;100.00;99649.19;5054080;28;20051;-72
2023/09/21 02:05:39;;;;;;;3.80;2.00;;;;;;;18.08;100.00;99651.91;5054181;28;20056;-73
2023/09/21 02:08:07;;;;;;;2.45;1.90;;;;;;;18.13;100.00;99651.00;5054200;28;20051;-72
2023/09/21 02:10:33;;;;;;;3.25;1.73;;;;;;;18.09;100.00;99647.25;5053931;28;20179;-73
2023/09/21 02:13:00;;;;;;;1.77;1.67;;;;;;;18.07;100.00;99644.81;5054014;28;20048;-72
2023/09/21 02:15:27;;;;;;;3.45;1.70;;;;;;;18.09;100.00;99639.03;5073813;28;20097;-72
2023/09/21 02:17:55;;;;;;;6.53;2.00;;;;;;;18.08;100.00;99645.66;5073438;28;20384;-73
2023/09/21 02:20:22;;;;;;;4.35;1.70;;;;;;;18.04;100.00;99639.94;5056056;28;20479;-73
2023/09/21 02:22:49;;;;;;;2.72;1.70;;;;;;;18.02;100.00;99636.72;5073088;28;20043;-73
2023/09/21 02:25:16;;;;;;;1.88;1.65;;;;;;;18.04;100.00;99634.47;5074119;28;20086;-72
2023/09/21 02:27:45;;;;;;;3.58;1.83;;;;;;;18.00;100.00;99630.75;5072025;28;20561;-73
2023/09/21 02:30:13;;;;;;;4.65;1.80;;;;;;;17.96;100.00;99633.25;5073659;28;20029;-72
2023/09/21 02:32:42;;;;;;;3.33;1.60;;;;;;;18.00;100.00;99634.28;5056093;28;20037;-72
2023/09/21 02:35:13;;;;;;;2.28;1.50;;;;;;;17.95;100.00;99628.09;5053593;28;20479;-72
2023/09/21 02:37:39;;;;;;;3.45;1.85;;;;;;;17.99;100.00;99626.38;5053033;28;20121;-72
2023/09/21 02:40:08;;;;;;;3.75;1.80;;;;;;;17.99;100.00;99616.22;5053246;28;20112;-73
2023/09/21 02:42:33;;;;;;;4.00;1.60;;;;;;;18.02;100.00;99620.28;5054397;28;20072;-73
2023/09/21 02:44:59;;;;;;;2.08;1.63;;;;;;;17.99;100.00;99618.16;5073423;28;20095;-72
2023/09/21 02:47:26;;;;;;;2.97;1.60;;;;;;;17.97;100.00;99618.47;5073377;28;20074;-72
2023/09/21 02:49:51;;;;;;;4.07;1.75;;;;;;;17.99;100.00;99623.66;5073101;28;20034;-73
2023/09/21 02:52:16;;;;;;;2.75;1.95;;;;;;;17.96;100.00;99621.50;5071913;28;20028;-73
2023/09/21 02:54:42;;;;;;;2.03;1.63;;;;;;;17.94;100.00;99613.59;5072703;28;20021;-73
2023/09/21 02:57:07;;;;;;;3.13;1.98;;;;;;;17.94;100.00;99623.75;5053558;28;20384;-73
2023/09/21 02:59:33;;;;;;;2.80;1.83;;;;;;;17.91;100.00;99618.91;5073057;28;20414;-72
2023/09/21 03:02:00;;;;;;;3.28;1.65;;;;;;;17.95;100.00;99617.16;5069915;28;20075;-73
2023/09/21 03:04:26;;;;;;;5.93;1.95;;;;;;;17.91;100.00;99610.69;5073107;28;20048;-73
2023/09/21 03:06:52;;;;;;;4.22;2.00;;;;;;;17.88;100.00;99604.66;5072710;28;20383;-72
2023/09/21 03:09:17;;;;;;;3.05;1.60;;;;;;;17.86;100.00;99598.69;5073070;28;20082;-73
2023/09/21 03:11:45;;;;;;;5.55;1.90;;;;;;;17.92;100.00;99604.06;5066554;28;20040;-72
2023/09/21 03:14:10;;;;;;;3.05;1.73;;;;;;;17.88;100.00;99598.38;5052533;28;20036;-73
2023/09/21 03:16:39;;;;;;;4.43;1.85;;;;;;;17.94;100.00;99612.81;5052474;28;20025;-73
2023/09/21 03:19:05;;;;;;;2.70;1.70;;;;;;;17.91;100.00;99602.47;5053133;28;20025;-72
2023/09/21 03:21:34;;;;;;;2.90;1.70;;;;;;;17.85;100.00;99602.53;5055704;28;20024;-72
2023/09/21 03:23:59;;;;;;;4.60;1.58;;;;;;;17.90;100.00;99601.66;5062896;28;20037;-72
2023/09/21 03:26:25;;;;;;;1.80;1.70;;;;;;;17.86;100.00;99600.59;5052771;28;20475;-72
2023/09/21 03:28:50;;;;;;;3.10;1.58;;;;;;;17.86;100.00;99598.69;5035524;28;20029;-76
2023/09/21 03:31:18;;;;;;;2.47;1.80;;;;;;;17.86;100.00;99590.47;5060153;28;20059;-72
2023/09/21 03:33:46;;;;;;;2.83;1.65;;;;;;;17.85;100.00;99596.25;5051222;28;20036;-71
2023/09/21 03:36:13;;;;;;;5.22;2.00;;;;;;;17.84;100.00;99589.94;5072587;28;20025;-72
2023/09/21 03:38:39;;;;;;;3.55;1.88;;;;;;;17.84;100.00;99589.16;5071006;28;20097;-72
2023/09/21 03:41:05;;;;;;;3.33;1.70;;;;;;;17.86;100.00;99603.31;5054600;28;20028;-73
2023/09/21 03:43:30;;;;;;;2.42;1.90;;;;;;;17.83;100.00;99596.56;5071465;28;20107;-72
2023/09/21 03:45:56;;;;;;;3.05;1.92;;;;;;;17.81;100.00;99589.75;5037089;28;20032;-72
2023/09/21 03:48:21;;;;;;;3.58;1.77;;;;;;;17.81;100.00;99582.34;5052416;28;20033;-72
2023/09/21 03:50:48;;;;;;;2.88;1.60;;;;;;;17.81;100.00;99582.34;5052209;28;20535;-72
2023/09/21 03:53:13;;;;;;;3.00;1.70;;;;;;;17.83;100.00;99573.84;5067117;28;20036;-71
2023/09/21 03:55:40;;;;;;;3.38;1.60;;;;;;;17.86;100.00;99579.53;5070746;28;20376;-72
2023/09/21 03:58:06;;;;;;;5.43;2.00;;;;;;;17.86;100.00;99579.53;5054477;28;20033;-71
2023/09/21 04:03:10;;;;;;;4.45;1.75;;;;;;;17.88;100.00;99565.53;5066571;28;20093;-72
2023/09/21 04:05:37;;;;;;;2.53;1.50;;;;;;;17.91;100.00;99569.63;5054283;28;20098;-72
2023/09/21 04:08:04;;;;;;;4.13;2.00;;;;;;;17.88;100.00;99571.00;5057185;28;20029;-71
2023/09/21 04:10:30;;;;;;;3.10;1.80;;;;;;;17.89;100.00;99578.94;5052373;28;20111;-73
2023/09/21 04:12:56;;;;;;;4.93;1.60;;;;;;;17.91;100.00;99575.09;5051485;28;20453;-72
2023/09/21 04:15:26;;;;;;;3.03;1.70;;;;;;;17.96;100.00;99572.25;5057270;28;20043;-72
2023/09/21 04:17:52;;;;;;;2.50;1.58;;;;;;;17.97;100.00;99574.69;5054087;28;20040;-71
2023/09/21 04:20:19;;;;;;;3.08;1.63;;;;;;;17.99;100.00;99572.44;5072389;28;20071;-72
2023/09/21 04:22:46;;;;;;;4.85;1.90;;;;;;;18.00;100.00;99567.78;5064817;28;20036;-73
2023/09/21 04:25:14;;;;;;;3.53;1.77;;;;;;;17.95;100.00;99574.19;5072113;28;20456;-73
2023/09/21 04:27:48;;;;;;;3.95;1.95;;;;;;;18.01;100.00;99574.88;5071903;28;20056;-72
2023/09/21 04:30:16;;;;;;;2.80;2.03;;;;;;;18.03;100.00;99569.91;5072044;28;20055;-73
2023/09/21 04:32:46;;;;;;;1.98;1.77;;;;;;;18.03;100.00;99561.72;5070848;28;20038;-73
2023/09/21 04:35:12;;;;;;;3.08;2.00;;;;;;;18.01;100.00;99558.44;5072093;28;20119;-72
2023/09/21 04:37:38;;;;;;;1.80;1.50;;;;;;;17.96;100.00;99572.25;5074623;28;20044;-79
2023/09/21 04:40:11;;;;;;;3.30;1.85;;;;;;;17.97;100.00;99555.53;5076004;28;20117;-79
2023/09/21 04:42:38;;;;;;;4.75;1.75;;;;;;;18.01;100.00;99556.53;5074637;28;20516;-71
2023/09/21 04:45:09;;;;;;;5.47;2.20;;;;;;;17.98;100.00;99564.53;5057572;28;20490;-70
2023/09/21 04:47:35;;;;;;;3.88;1.85;;;;;;;18.00;100.00;99559.59;5075718;28;20348;-71
2023/09/21 04:50:01;;;;;;;2.55;2.00;;;;;;;17.97;100.00;99557.47;5075529;28;20075;-71
2023/09/21 04:52:26;;;;;;;2.83;1.90;;;;;;;18.01;100.00;99558.44;5066006;28;20053;-71
2023/09/21 04:54:52;;;;;;;3.50;2.03;;;;;;;17.99;100.00;99558.75;5055001;28;20041;-71
2023/09/21 04:57:18;;;;;;;3.30;1.95;;;;;;;17.95;100.00;99560.50;5055583;28;20128;-71
2023/09/21 04:59:44;;;;;;;5.25;1.90;;;;;;;17.95;100.00;99551.47;5055249;28;20029;-71
2023/09/21 05:02:10;;;;;;;5.72;1.88;;;;;;;18.01;100.00;99555.72;5034711;28;20021;-70
2023/09/21 05:04:35;;;;;;;3.58;1.88;;;;;;;17.98;100.00;99550.84;5055218;28;20041;-70
2023/09/21 05:07:00;;;;;;;2.67;1.73;;;;;;;18.00;100.00;99552.16;5057375;28;20040;-71
2023/09/21 05:09:26;;;;;;;3.50;1.60;;;;;;;17.98;100.00;99543.47;5055544;28;20051;-70
2023/09/21 05:11:53;;;;;;;5.68;2.20;;;;;;;17.98;100.00;99543.47;5040268;28;20028;-69
2023/09/21 05:14:21;;;;;;;2.85;1.90;;;;;;;17.93;100.00;99537.28;5075416;28;20036;-71
2023/09/21 05:16:46;;;;;;;4.93;1.95;;;;;;;17.90;100.00;99535.97;5072274;28;20043;-71
2023/09/21 05:19:13;;;;;;;5.47;2.00;;;;;;;17.94;100.00;99533.44;5075421;28;20103;-71
2023/09/21 05:21:38;;;;;;;4.15;1.92;;;;;;;17.97;100.00;99535.56;5074779;28;20116;-70
2023/09/21 05:24:04;;;;;;;3.33;2.00;;;;;;;17.94;100.00;99538.91;5074821;28;20455;-71
2023/09/21 05:26:29;;;;;;;2.38;1.80;;;;;;;17.98;100.00;99539.91;5074413;28;20112;-71
2023/09/21 05:28:54;;;;;;;8.35;2.00;;;;;;;18.03;100.00;99531.59;5074703;28;20043;-70
2023/09/21 05:31:23;;;;;;;1.90;1.70;;;;;;;18.01;100.00;99531.91;5065654;28;20070;-71
2023/09/21 05:33:48;;;;;;;2.75;1.88;;;;;;;18.08;100.00;99541.63;5054650;28;20029;-71
2023/09/21 05:36:13;;;;;;;3.65;2.00;;;;;;;18.06;100.00;99536.47;5057867;28;20028;-71
2023/09/21 05:38:39;;;;;;;3.70;1.95;;;;;;;18.07;100.00;99529.84;5074710;28;20020;-71
2023/09/21 05:41:06;;;;;;;2.85;1.92;;;;;;;18.07;100.00;99535.31;5074525;28;20029;-71
2023/09/21 05:43:31;;;;;;;7.22;2.20;;;;;;;18.09;100.00;99532.28;5074659;28;20114;-70
2023/09/21 05:45:57;;;;;;;2.20;1.80;;;;;;;18.12;100.00;99532.50;5072384;28;20497;-70
2023/09/21 05:48:22;;;;;;;5.00;2.00;;;;;;;18.14;100.00;99524.75;5074530;28;20027;-70
2023/09/21 05:50:49;;;;;;;3.47;1.95;;;;;;;18.21;100.00;99535.31;5074298;28;20028;-70
2023/09/21 05:53:15;;;;;;;6.13;1.88;;;;;;;18.19;100.00;99532.88;5074166;28;20032;-71
2023/09/21 05:55:43;;;;;;;3.17;2.10;;;;;;;18.22;100.00;99531.44;5074420;28;20025;-71
2023/09/21 05:58:09;;;;;;;4.97;2.10;;;;;;;18.21;100.00;99535.31;5072807;28;20028;-69
2023/09/21 06:00:35;;;;;;;5.15;1.90;;;;;;;18.20;100.00;99533.69;5069144;28;20075;-70
2023/09/21 06:03:00;;;;;;;4.85;2.20;;;;;;;18.19;100.00;99532.88;5059697;28;20048;-71
2023/09/21 06:05:29;;;;;;;2.17;1.88;;;;;;;18.13;100.00;99528.63;5054252;28;20045;-71
2023/09/21 06:07:56;;;;;;;4.05;2.08;;;;;;;18.17;100.00;99540.56;5035607;28;20118;-70
2023/09/21 06:10:22;;;;;;;3.47;2.20;;;;;;;18.09;100.00;99548.69;5054137;28;20025;-70
2023/09/21 06:12:48;;;;;;;2.65;2.00;;;;;;;18.05;100.00;99532.88;5053799;28;20369;-70
2023/09/21 06:15:13;;;;;;;6.60;2.40;;;;;;;17.96;100.00;99539.41;5035838;28;20032;-69
2023/09/21 06:17:40;;;;;;;5.07;2.08;;;;;;;17.88;100.00;99544.44;5072770;28;20440;-71
2023/09/21 06:20:06;;;;;;;2.80;2.20;;;;;;;17.77;100.00;99553.16;5073842;28;20024;-71
2023/09/21 06:22:31;;;;;;;5.53;2.42;;;;;;;17.70;100.00;99545.38;5073992;28;20028;-70
2023/09/21 06:24:57;;;;;;;4.50;2.28;;;;;;;17.63;100.00;99555.91;5073413;28;20107;-69
2023/09/21 06:27:23;;;;;;;8.48;2.70;;;;;;;17.56;100.00;99542.66;5072919;28;20066;-70
2023/09/21 06:29:49;;;;;;;7.35;2.92;;;;;;;17.54;100.00;99545.69;5073547;28;20121;-70
2023/09/21 06:32:15;;;;;;;3.75;2.30;;;;;;;17.49;100.00;99545.78;5071471;28;20032;-71
2023/09/21 06:34:41;;;;;;;4.43;2.20;;;;;;;17.43;100.00;99551.66;5073721;28;20032;-70
2023/09/21 06:37:07;;;;;;;2.53;2.15;;;;;;;17.39;100.00;99548.69;5072576;28;20032;-70
2023/09/21 06:39:32;;;;;;;5.50;2.05;;;;;;;17.37;100.00;99561.88;5073516;28;20031;-71
2023/09/21 06:41:57;;;;;;;3.80;2.33;;;;;;;17.38;100.00;99558.03;5073326;28;20033;-71
2023/09/21 06:44:23;;;;;;;2.95;2.30;;;;;;;17.32;100.00;99540.09;5073746;28;20078;-70
2023/09/21 06:46:50;;;;;;;3.97;2.15;;;;;;;17.31;100.00;99555.69;5071149;28;20462;-71
2023/09/21 06:49:15;;;;;;;3.45;2.40;;;;;;;17.27;100.00;99562.06;5072510;28;20024;-70
2023/09/21 06:51:40;;;;;;;3.85;2.42;;;;;;;17.26;100.00;99565.91;5073055;28;20166;-71
2023/09/21 06:54:06;;;;;;;5.55;2.50;;;;;;;17.26;100.00;99574.13;5073171;28;20349;-74
2023/09/21 06:56:31;;;;;;;4.88;2.10;;;;;;;17.16;100.00;99575.91;5068636;28;20039;-71
2023/09/21 06:58:57;;;;;;;4.47;2.20;;;;;;;17.12;100.00;99576.81;5052456;28;20079;-70
2023/09/21 07:01:26;;;;;;;3.42;2.13;;;;;;;17.00;100.00;99577.31;5050813;28;20033;-76
2023/09/21 07:03:51;;;;;;;4.80;2.30;;;;;;;16.93;100.00;99571.41;5052374;28;20044;-71
2023/09/21 07:06:19;;;;;;;3.97;2.70;;;;;;;16.94;100.00;99573.00;5053435;28;20028;-71
2023/09/21 07:08:47;;;;;;;4.55;2.60;;;;;;;16.89;100.00;99567.63;5052762;28;20446;-72
2023/09/21 07:11:14;;;;;;;4.18;2.38;;;;;;;16.80;100.00;99571.03;5041736;28;20418;-72
2023/09/21 07:13:42;;;;;;;6.43;3.03;;;;;;;16.76;100.00;99564.53;5069281;28;20032;-72
2023/09/21 07:16:08;;;;;;;4.15;2.47;;;;;;;16.75;100.00;99557.44;5070878;28;20033;-72
2023/09/21 07:18:33;;;;;;;5.40;2.70;;;;;;;16.77;100.00;99560.69;5072446;28;20078;-72
2023/09/21 07:20:59;;;;;;;2.85;2.40;;;;;;;16.76;100.00;99558.28;5063864;28;20029;-72
2023/09/21 07:23:24;;;;;;;4.65;2.47;;;;;;;16.78;100.00;99545.09;5052432;28;20087;-72
2023/09/21 07:25:49;;;;;;;5.80;2.80;;;;;;;16.74;100.00;99549.53;5052189;28;20029;-72
2023/09/21 07:28:15;;;;;;;7.75;2.80;;;;;;;16.79;100.00;99550.28;5052441;28;20044;-71
2023/09/21 07:30:41;;;;;;;3.95;2.72;;;;;;;16.74;100.00;99553.09;5059986;28;20380;-71
2023/09/21 07:33:07;;;;;;;3.75;2.25;;;;;;;16.81;100.00;99550.78;5052237;28;20029;-73
2023/09/21 07:35:32;;;;;;;5.50;2.78;;;;;;;16.80;100.00;99553.81;5056023;28;20052;-71
2023/09/21 07:37:57;;;;;;;4.82;2.60;;;;;;;16.81;100.00;99555.44;5062827;28;20068;-72
2023/09/21 07:40:23;;;;;;;5.13;2.58;;;;;;;16.77;100.00;99560.69;5052289;28;20028;-71
2023/09/21 07:42:50;;;;;;;6.03;2.70;;;;;;;16.77;100.00;99552.50;5034026;28;20144;-71
2023/09/21 07:45:16;;;;;;;4.10;2.30;;;;;;;16.76;100.00;99566.47;5051997;28;20376;-71
2023/09/21 07:47:41;;;;;;;3.50;2.35;;;;;;;16.80;100.00;99571.03;5052469;28;20029;-72
2023/09/21 07:50:08;;;;;;;6.82;2.65;;;;;;;16.81;100.00;99566.38;5051351;28;20032;-71
2023/09/21 07:52:34;;;;;;;3.50;2.65;;;;;;;16.80;100.00;99565.56;5035941;28;20032;-72
2023/09/21 07:55:02;;;;;;;3.90;2.65;;;;;;;16.83;100.00;99575.91;5071664;28;20033;-71
2023/09/21 07:57:31;;;;;;;4.35;2.35;;;;;;;16.79;100.00;99569.41;5071652;28;20481;-72
2023/09/21 07:59:56;;;;;;;5.47;2.80;;;;;;;16.85;100.00;99564.66;5071482;28;20033;-73
2023/09/21 08:02:22;;;;;;;3.17;2.42;;;;;;;16.80;100.00;99571.03;5067497;28;20559;-73
2023/09/21 08:04:48;;;;;;;5.15;2.58;;;;;;;16.75;100.00;99582.03;5071406;28;20045;-73
2023/09/21 08:07:14;;;;;;;3.97;2.70;;;;;;;16.74;100.00;99576.84;5067073;28;20051;-73
2023/09/21 08:09:39;;;;;;;4.68;2.65;;;;;;;16.74;100.00;99588.63;5071251;28;20075;-73
2023/09/21 08:12:05;;;;;;;4.32;2.75;;;;;;;16.70;100.00;99590.31;5072401;28;20028;-73
2023/09/21 08:14:32;;;;;;;3.55;2.90;;;;;;;16.65;100.00;99602.13;5074538;28;20036;-75
2023/09/21 08:16:59;;;;;;;4.70;2.90;;;;;;;16.64;100.00;99594.22;5056608;28;20040;-74
2023/09/21 08:19:24;;;;;;;3.78;2.88;;;;;;;16.64;100.00;99594.22;5057272;28;20588;-74
2023/09/21 08:21:49;;;;;;;3.95;2.60;;;;;;;16.64;100.00;99583.31;5071131;28;20119;-73
2023/09/21 08:24:15;;;;;;;6.88;2.55;;;;;;;16.65;100.00;99602.13;5074281;28;20036;-73
2023/09/21 08:26:40;;;;;;;3.70;2.60;;;;;;;16.62;100.00;99618.28;5056844;28;20028;-75
2023/09/21 08:29:06;;;;;;;4.78;2.60;;;;;;;16.56;100.00;99620.28;5056531;28;20515;-73
2023/09/21 08:31:32;;;;;;;4.28;2.40;;;;;;;16.53;100.00;99620.06;5051361;28;20082;-72
2023/09/21 08:33:58;;;;;;;3.85;2.28;;;;;;;16.46;100.00;99626.69;5074464;28;20024;-72
2023/09/21 08:36:24;;;;;;;2.80;2.00;;;;;;;16.41;100.00;99628.66;5059176;28;20086;-75
2023/09/21 08:38:49;;;;;;;3.20;2.33;;;;;;;16.35;100.00;99632.56;5054639;28;20062;-74
2023/09/21 08:41:16;;;;;;;4.78;2.10;;;;;;;16.34;100.00;99631.78;5037011;28;20036;-73
2023/09/21 08:43:42;;;;;;;6.45;2.30;;;;;;;16.33;100.00;99641.06;5073687;28;20036;-73
2023/09/21 08:46:11;;;;;;;4.65;2.30;;;;;;;16.24;100.00;99646.34;5056250;28;20082;-73
2023/09/21 08:48:39;;;;;;;1.95;1.77;;;;;;;16.20;100.00;99649.97;5072051;28;20490;-73
2023/09/21 08:51:09;;;;;;;6.32;2.05;;;;;;;16.15;100.00;99655.50;5073290;28;20036;-71
2023/09/21 08:53:35;;;;;;;2.87;1.63;;;;;;;16.09;100.00;99654.75;5054191;28;20033;-75
2023/09/21 08:56:02;;;;;;;2.17;1.90;;;;;;;16.05;100.00;99654.50;5054439;28;20078;-73
2023/09/21 08:58:33;;;;;;;3.53;1.75;;;;;;;16.06;100.00;99647.97;5051544;28;20021;-70
2023/09/21 09:00:58;;;;;;;4.20;1.85;;;;;;;16.05;100.00;99642.81;5053656;28;20036;-70
2023/09/21 09:03:25;;;;;;;1.90;1.70;;;;;;;16.04;100.00;99649.34;5068059;28;20037;-71
2023/09/21 09:05:52;;;;;;;1.30;1.20;;;;;;;15.91;100.00;99645.38;5039297;28;1070979;-70
2023/09/21 09:08:18;;;;;;;2.38;1.25;;;;;;;15.91;100.00;99639.94;5055630;28;20464;-72
2023/09/21 09:10:43;;;;;;;3.58;1.33;;;;;;;15.86;100.00;99627.16;5065296;28;20036;-72
2023/09/21 09:13:09;;;;;;;2.13;1.60;;;;;;;15.90;100.00;99651.97;5056753;28;20035;-72
2023/09/21 09:15:37;;;;;;;2.25;1.48;;;;;;;15.81;100.00;99649.06;5075170;28;20025;-70
2023/09/21 09:18:05;;;;;;;1.85;1.20;;;;;;;15.78;100.00;99644.19;5075166;28;20039;-73
2023/09/21 09:20:32;;;;;;;1.23;1.13;;;;;;;15.76;100.00;99646.34;5055107;28;20476;-71
2023/09/21 09:23:00;;;;;;;2.33;1.38;;;;;;;15.69;100.00;99645.88;5054180;28;20024;-73
2023/09/21 09:25:25;;;;;;;2.13;1.30;;;;;;;15.71;100.00;99638.22;5058049;28;20086;-72
2023/09/21 09:27:51;;;;;;;2.55;1.40;;;;;;;15.81;100.00;99615.53;5064903;28;20028;-72
2023/09/21 09:30:18;;;;;;;1.40;1.30;;;;;;;15.79;100.00;99642.25;5074766;28;20364;-71
2023/09/21 09:32:47;;;;;;;4.45;1.80;;;;;;;15.84;100.00;99623.94;5057936;28;20040;-71
2023/09/21 09:35:13;;;;;;;2.50;1.58;;;;;;;15.94;100.00;99631.16;5039643;28;20103;-73
2023/09/21 09:37:40;;;;;;;4.60;1.52;;;;;;;16.08;100.00;99626.66;5062228;28;20527;-74
2023/09/21 09:40:10;;;;;;;2.22;1.42;;;;;;;16.13;100.00;99620.31;5043817;28;20048;-73
2023/09/21 09:42:40;;;;;;;2.42;1.60;;;;;;;16.05;100.00;99618.25;5063929;28;20075;-72
2023/09/21 09:45:20;;;;;;;1.50;1.40;;;;;;;16.12;100.00;99615.94;5060512;28;20041;-71
2023/09/21 09:47:51;;;;;;;2.38;1.38;;;;;;;16.22;100.00;99620.47;5060547;28;20025;-73
2023/09/21 09:50:24;;;;;;;1.92;1.65;;;;;;;16.30;100.00;99625.28;5042139;28;20128;-73
2023/09/21 09:52:54;;;;;;;2.75;1.90;;;;;;;16.37;100.00;99620.25;5060944;28;20034;-77
2023/09/21 09:55:25;;;;;;;2.70;1.80;;;;;;;16.45;100.00;99621.53;5056308;28;20100;-73
2023/09/21 09:57:53;;;;;;;2.72;2.17;;;;;;;16.54;100.00;99621.69;5044497;28;20458;-71
2023/09/21 10:00:22;;;;;;;2.75;2.03;;;;;;;16.51;100.00;99617.63;5035759;28;20511;-72
2023/09/21 10:02:49;;;;;;;3.10;2.03;;;;;;;16.58;100.00;99611.81;5052791;28;20064;-72
2023/09/21 10:05:19;;;;;;;4.22;2.17;;;;;;;16.56;100.00;99608.53;5065569;28;20049;-71
2023/09/21 10:07:45;;;;;;;3.92;2.20;;;;;;;16.59;100.00;99607.94;5063631;28;20033;-71
2023/09/21 10:10:15;;;;;;;2.53;1.85;;;;;;;16.69;100.00;99601.53;5055877;28;20501;-72
2023/09/21 10:12:43;;;;;;;2.78;2.10;;;;;;;16.74;100.00;99599.53;5074013;28;20044;-72
2023/09/21 10:15:13;;;;;;;4.45;2.22;;;;;;;16.79;100.00;99590.44;5068785;28;20116;-76
2023/09/21 10:17:38;;;;;;;2.85;2.35;;;;;;;16.86;100.00;99595.53;5053887;28;20044;-72
2023/09/21 10:20:14;;;;;;;4.55;2.78;;;;;;;16.87;100.00;99591.72;5053476;28;20028;-72
2023/09/21 10:22:42;;;;;;;4.85;2.70;;;;;;;16.92;100.00;99591.63;5053910;28;20029;-72
2023/09/21 10:25:10;;;;;;;4.40;2.70;;;;;;;16.97;100.00;99588.84;5053364;28;20128;-72
2023/09/21 10:27:38;;;;;;;5.10;3.00;;;;;;;16.97;100.00;99586.91;5052929;28;20025;-72
2023/09/21 10:30:07;;;;;;;3.97;3.00;;;;;;;17.09;100.00;99594.63;5060726;28;20029;-71
2023/09/21 10:32:43;;;;;;;5.60;2.80;;;;;;;17.12;100.00;99593.19;5065324;28;20029;-72
2023/09/21 10:35:14;;;;;;;4.40;2.53;;;;;;;17.17;100.00;99593.94;5055654;28;20036;-71
2023/09/21 10:37:40;;;;;;;5.38;2.72;;;;;;;17.26;100.00;99583.13;5069251;28;20035;-72
2023/09/21 10:40:08;;;;;;;3.20;2.38;;;;;;;17.23;100.00;99580.19;5073350;28;20028;-72
2023/09/21 10:42:36;;;;;;;3.60;2.15;;;;;;;17.26;100.00;99576.84;5073514;28;20041;-72
2023/09/21 10:45:10;;;;;;;5.32;2.50;;;;;;;17.33;100.00;99575.34;5072878;28;20033;-72
2023/09/21 10:47:47;;;;;;;2.47;1.90;;;;;;;17.37;100.00;99578.28;5053161;28;20060;-72
2023/09/21 10:50:14;;;;;;;3.05;2.08;;;;;;;17.43;100.00;99571.59;5038849;28;20115;-72
2023/09/21 10:52:42;;;;;;;2.17;1.90;;;;;;;17.42;100.00;99574.63;5053274;28;20082;-72
2023/09/21 10:55:09;;;;;;;3.42;1.73;;;;;;;17.44;100.00;99561.50;5053029;28;20467;-71
2023/09/21 10:57:35;;;;;;;2.13;1.55;;;;;;;17.48;100.00;99560.59;5053274;28;20488;-71
2023/09/21 11:00:00;;;;;;;3.55;1.90;;;;;;;17.48;100.00;99544.19;5053300;28;20033;-72
2023/09/21 11:02:31;;;;;;;3.97;2.00;;;;;;;17.48;100.00;99540.59;5050312;28;20075;-73
2023/09/21 11:04:58;;;;;;;2.00;1.70;;;;;;;17.52;100.00;99536.97;5059763;28;20110;-72
2023/09/21 11:07:24;;;;;;;2.20;1.85;;;;;;;17.55;100.00;99535.56;5050947;28;20471;-72
2023/09/21 11:09:50;;;;;;;3.35;1.80;;;;;;;17.60;100.00;99540.91;5034380;28;20033;-72
2023/09/21 11:12:17;;;;;;;1.85;1.67;;;;;;;17.61;100.00;99536.28;5055666;28;20095;-74
2023/09/21 11:14:47;;;;;;;3.40;1.90;;;;;;;17.63;100.00;99531.28;5034746;28;20480;-73
2023/09/21 11:17:16;;;;;;;5.00;1.70;;;;;;;17.64;100.00;99528.25;5057608;28;20021;-71
2023/09/21 11:19:43;;;;;;;1.77;1.67;;;;;;;17.63;100.00;99531.28;5054757;28;20476;-72
2023/09/21 11:22:15;;;;;;;3.47;1.73;;;;;;;17.64;100.00;99524.72;5063897;28;20075;-73
2023/09/21 11:24:42;;;;;;;3.03;1.70;;;;;;;17.68;100.00;99512.06;5035011;28;20053;-74